sensor_id;sensor_type;location;lat;lon;timestamp;temperature;humidity
1760;DHT22;877;46.266;20.062;2023-08-31T00:00:49;18.00;98.30
1760;DHT22;877;46.266;20.062;2023-08-31T00:03:17;18.00;99.00
1760;DHT22;877;46.266;20.062;2023-08-31T00:05:44;17.90;99.80
1760;DHT22;877;46.266;20.062;2023-08-31T00:08:10;17.70;100.00
1760;DHT22;877;46.266;20.062;2023-08-31T00:10:37;17.40;100.00
1760;DHT22;877;46.266;20.062;2023-08-31T00:13:04;17.40;100.00
1760;DHT22;877;46.266;20.062;2023-08-31T00:15:30;17.40;100.00
1760;DHT22;877;46.266;20.062;2023-08-31T00:17:58;17.50;100.00
1760;DHT22;877;46.266;20.062;2023-08-31T00:20:25;17.50;100.00
1760;DHT22;877;46.266;20.062;2023-08-31T00:22:52;17.30;100.00
1760;DHT22;877;46.266;20.062;2023-08-31T00:25:18;17.30;100.00
1760;DHT22;877;46.266;20.062;2023-08-31T00:27:44;17.30;100.00
1760;DHT22;877;46.266;20.062;2023-08-31T00:30:14;17.30;100.00
1760;DHT22;877;46.266;20.062;2023-08-31T00:32:42;17.20;100.00
1760;DHT22;877;46.266;20.062;2023-08-31T00:35:09;17.30;100.00
1760;DHT22;877;46.266;20.062;2023-08-31T00:37:35;17.40;100.00
1760;DHT22;877;46.266;20.062;2023-08-31T00:40:02;17.20;100.00
1760;DHT22;877;46.266;20.062;2023-08-31T00:42:30;17.40;100.00
1760;DHT22;877;46.266;20.062;2023-08-31T00:44:56;17.50;100.00
1760;DHT22;877;46.266;20.062;2023-08-31T00:47:23;17.50;100.00
1760;DHT22;877;46.266;20.062;2023-08-31T00:49:54;17.10;100.00
1760;DHT22;877;46.266;20.062;2023-08-31T00:52:20;17.20;100.00
1760;DHT22;877;46.266;20.062;2023-08-31T00:54:51;17.20;100.00
1760;DHT22;877;46.266;20.062;2023-08-31T00:57:18;17.10;100.00
1760;DHT22;877;46.266;20.062;2023-08-31T00:59:45;17.00;100.00
1760;DHT22;877;46.266;20.062;2023-08-31T01:02:17;17.00;100.00
1760;DHT22;877;46.266;20.062;2023-08-31T01:07:57;17.10;100.00
1760;DHT22;877;46.266;20.062;2023-08-31T01:13:12;17.10;100.00
1760;DHT22;877;46.266;20.062;2023-08-31T01:15:45;17.20;100.00
1760;DHT22;877;46.266;20.062;2023-08-31T01:18:16;17.40;100.00
1760;DHT22;877;46.266;20.062;2023-08-31T01:20:52;17.40;100.00
1760;DHT22;877;46.266;20.062;2023-08-31T01:23:28;17.20;100.00
1760;DHT22;877;46.266;20.062;2023-08-31T01:25:57;17.20;100.00
1760;DHT22;877;46.266;20.062;2023-08-31T01:28:25;17.20;100.00
1760;DHT22;877;46.266;20.062;2023-08-31T01:30:52;17.30;100.00
1760;DHT22;877;46.266;20.062;2023-08-31T01:33:19;17.20;100.00
1760;DHT22;877;46.266;20.062;2023-08-31T01:35:50;17.10;100.00
1760;DHT22;877;46.266;20.062;2023-08-31T01:38:23;17.10;100.00
1760;DHT22;877;46.266;20.062;2023-08-31T01:41:05;17.00;100.00
1760;DHT22;877;46.266;20.062;2023-08-31T01:43:32;17.20;100.00
1760;DHT22;877;46.266;20.062;2023-08-31T01:49:24;17.20;100.00
1760;DHT22;877;46.266;20.062;2023-08-31T01:51:51;17.10;100.00
1760;DHT22;877;46.266;20.062;2023-08-31T01:54:17;17.20;100.00
1760;DHT22;877;46.266;20.062;2023-08-31T01:56:43;17.20;100.00
1760;DHT22;877;46.266;20.062;2023-08-31T01:59:09;17.20;100.00
1760;DHT22;877;46.266;20.062;2023-08-31T02:01:36;17.20;100.00
1760;DHT22;877;46.266;20.062;2023-08-31T02:04:02;17.10;100.00
1760;DHT22;877;46.266;20.062;2023-08-31T02:06:28;17.30;100.00
1760;DHT22;877;46.266;20.062;2023-08-31T02:08:54;17.20;100.00
1760;DHT22;877;46.266;20.062;2023-08-31T02:11:20;17.20;100.00
1760;DHT22;877;46.266;20.062;2023-08-31T02:13:47;17.30;100.00
1760;DHT22;877;46.266;20.062;2023-08-31T02:16:13;17.30;100.00
1760;DHT22;877;46.266;20.062;2023-08-31T02:18:46;17.10;100.00
1760;DHT22;877;46.266;20.062;2023-08-31T02:21:12;17.10;100.00
1760;DHT22;877;46.266;20.062;2023-08-31T02:23:39;17.10;100.00
1760;DHT22;877;46.266;20.062;2023-08-31T02:26:04;17.00;100.00
1760;DHT22;877;46.266;20.062;2023-08-31T02:28:31;17.10;100.00
1760;DHT22;877;46.266;20.062;2023-08-31T02:31:00;17.10;100.00
1760;DHT22;877;46.266;20.062;2023-08-31T02:33:26;17.20;100.00
1760;DHT22;877;46.266;20.062;2023-08-31T02:35:54;17.20;100.00
1760;DHT22;877;46.266;20.062;2023-08-31T02:38:22;17.20;100.00
1760;DHT22;877;46.266;20.062;2023-08-31T02:40:48;17.20;100.00
1760;DHT22;877;46.266;20.062;2023-08-31T02:43:15;17.00;100.00
1760;DHT22;877;46.266;20.062;2023-08-31T02:45:42;17.10;100.00
1760;DHT22;877;46.266;20.062;2023-08-31T02:48:08;17.30;100.00
1760;DHT22;877;46.266;20.062;2023-08-31T02:50:39;17.30;100.00
1760;DHT22;877;46.266;20.062;2023-08-31T02:53:05;17.20;100.00
1760;DHT22;877;46.266;20.062;2023-08-31T02:55:34;17.30;100.00
1760;DHT22;877;46.266;20.062;2023-08-31T02:58:01;17.40;100.00
1760;DHT22;877;46.266;20.062;2023-08-31T03:00:28;17.50;100.00
1760;DHT22;877;46.266;20.062;2023-08-31T03:02:55;17.60;100.00
1760;DHT22;877;46.266;20.062;2023-08-31T03:05:22;17.70;100.00
1760;DHT22;877;46.266;20.062;2023-08-31T03:07:47;17.60;100.00
1760;DHT22;877;46.266;20.062;2023-08-31T03:10:13;17.50;100.00
1760;DHT22;877;46.266;20.062;2023-08-31T03:12:40;17.60;100.00
1760;DHT22;877;46.266;20.062;2023-08-31T03:15:07;17.60;100.00
1760;DHT22;877;46.266;20.062;2023-08-31T03:17:34;17.70;100.00
1760;DHT22;877;46.266;20.062;2023-08-31T03:20:00;17.80;100.00
1760;DHT22;877;46.266;20.062;2023-08-31T03:22:26;17.80;100.00
1760;DHT22;877;46.266;20.062;2023-08-31T03:24:54;17.80;100.00
1760;DHT22;877;46.266;20.062;2023-08-31T03:27:22;17.80;98.80
1760;DHT22;877;46.266;20.062;2023-08-31T03:29:48;17.90;99.40
1760;DHT22;877;46.266;20.062;2023-08-31T03:32:14;17.90;98.60
1760;DHT22;877;46.266;20.062;2023-08-31T03:34:39;18.00;99.30
1760;DHT22;877;46.266;20.062;2023-08-31T03:37:05;18.00;98.80
1760;DHT22;877;46.266;20.062;2023-08-31T03:39:32;17.90;97.50
1760;DHT22;877;46.266;20.062;2023-08-31T03:41:59;17.50;100.00
1760;DHT22;877;46.266;20.062;2023-08-31T03:44:26;17.20;100.00
1760;DHT22;877;46.266;20.062;2023-08-31T03:46:53;17.00;100.00
1760;DHT22;877;46.266;20.062;2023-08-31T03:49:19;17.10;100.00
1760;DHT22;877;46.266;20.062;2023-08-31T03:51:46;17.00;100.00
1760;DHT22;877;46.266;20.062;2023-08-31T03:54:12;17.10;100.00
1760;DHT22;877;46.266;20.062;2023-08-31T03:56:38;17.10;100.00
1760;DHT22;877;46.266;20.062;2023-08-31T03:59:05;17.00;100.00
1760;DHT22;877;46.266;20.062;2023-08-31T04:01:31;16.90;100.00
1760;DHT22;877;46.266;20.062;2023-08-31T04:07:13;16.90;100.00
1760;DHT22;877;46.266;20.062;2023-08-31T04:09:47;16.80;100.00
1760;DHT22;877;46.266;20.062;2023-08-31T04:15:39;16.80;100.00
1760;DHT22;877;46.266;20.062;2023-08-31T04:18:12;16.80;100.00
1760;DHT22;877;46.266;20.062;2023-08-31T04:21:15;16.70;100.00
1760;DHT22;877;46.266;20.062;2023-08-31T04:23:48;16.70;100.00
1760;DHT22;877;46.266;20.062;2023-08-31T04:26:16;16.70;100.00
1760;DHT22;877;46.266;20.062;2023-08-31T04:29:09;16.70;100.00
1760;DHT22;877;46.266;20.062;2023-08-31T04:31:48;16.60;100.00
1760;DHT22;877;46.266;20.062;2023-08-31T04:34:18;16.70;100.00
1760;DHT22;877;46.266;20.062;2023-08-31T04:36:53;16.60;100.00
1760;DHT22;877;46.266;20.062;2023-08-31T04:39:27;16.60;100.00
1760;DHT22;877;46.266;20.062;2023-08-31T04:42:03;16.60;100.00
1760;DHT22;877;46.266;20.062;2023-08-31T04:44:33;16.60;100.00
1760;DHT22;877;46.266;20.062;2023-08-31T04:46:58;16.50;100.00
1760;DHT22;877;46.266;20.062;2023-08-31T04:49:25;16.60;100.00
1760;DHT22;877;46.266;20.062;2023-08-31T04:52:24;16.60;100.00
1760;DHT22;877;46.266;20.062;2023-08-31T04:55:09;16.60;100.00
1760;DHT22;877;46.266;20.062;2023-08-31T04:57:42;16.60;100.00
1760;DHT22;877;46.266;20.062;2023-08-31T05:00:14;16.60;100.00
1760;DHT22;877;46.266;20.062;2023-08-31T05:02:46;16.60;100.00
1760;DHT22;877;46.266;20.062;2023-08-31T05:05:24;16.70;100.00
1760;DHT22;877;46.266;20.062;2023-08-31T05:07:55;16.70;100.00
1760;DHT22;877;46.266;20.062;2023-08-31T05:10:22;16.70;100.00
1760;DHT22;877;46.266;20.062;2023-08-31T05:12:55;16.70;100.00
1760;DHT22;877;46.266;20.062;2023-08-31T05:15:22;16.80;100.00
1760;DHT22;877;46.266;20.062;2023-08-31T05:17:49;16.80;100.00
1760;DHT22;877;46.266;20.062;2023-08-31T05:20:23;16.80;100.00
1760;DHT22;877;46.266;20.062;2023-08-31T05:22:51;17.00;100.00
1760;DHT22;877;46.266;20.062;2023-08-31T05:25:19;17.00;100.00
1760;DHT22;877;46.266;20.062;2023-08-31T05:27:46;17.10;100.00
1760;DHT22;877;46.266;20.062;2023-08-31T05:30:47;16.90;100.00
1760;DHT22;877;46.266;20.062;2023-08-31T05:33:14;16.90;100.00
1760;DHT22;877;46.266;20.062;2023-08-31T05:35:40;16.80;100.00
1760;DHT22;877;46.266;20.062;2023-08-31T05:38:09;16.90;100.00
1760;DHT22;877;46.266;20.062;2023-08-31T05:40:37;16.90;100.00
1760;DHT22;877;46.266;20.062;2023-08-31T05:43:03;16.90;100.00
1760;DHT22;877;46.266;20.062;2023-08-31T05:45:33;16.90;100.00
1760;DHT22;877;46.266;20.062;2023-08-31T05:48:00;17.00;100.00
1760;DHT22;877;46.266;20.062;2023-08-31T05:50:27;17.20;100.00
1760;DHT22;877;46.266;20.062;2023-08-31T05:52:55;17.20;100.00
1760;DHT22;877;46.266;20.062;2023-08-31T05:55:28;17.00;100.00
1760;DHT22;877;46.266;20.062;2023-08-31T05:58:01;17.10;100.00
1760;DHT22;877;46.266;20.062;2023-08-31T06:00:33;17.40;100.00
1760;DHT22;877;46.266;20.062;2023-08-31T06:03:02;17.40;100.00
1760;DHT22;877;46.266;20.062;2023-08-31T06:05:33;17.30;98.30
1760;DHT22;877;46.266;20.062;2023-08-31T06:08:00;17.10;99.40
1760;DHT22;877;46.266;20.062;2023-08-31T06:10:26;17.10;100.00
1760;DHT22;877;46.266;20.062;2023-08-31T06:13:05;17.30;100.00
1760;DHT22;877;46.266;20.062;2023-08-31T06:15:33;17.40;98.20
1760;DHT22;877;46.266;20.062;2023-08-31T06:18:00;17.50;98.80
1760;DHT22;877;46.266;20.062;2023-08-31T06:20:28;17.70;97.40
1760;DHT22;877;46.266;20.062;2023-08-31T06:23:13;17.70;97.30
1760;DHT22;877;46.266;20.062;2023-08-31T06:25:41;17.80;97.00
1760;DHT22;877;46.266;20.062;2023-08-31T06:28:17;17.80;97.00
1760;DHT22;877;46.266;20.062;2023-08-31T06:30:43;18.10;96.60
1760;DHT22;877;46.266;20.062;2023-08-31T06:33:14;18.20;94.60
1760;DHT22;877;46.266;20.062;2023-08-31T06:35:46;18.00;93.40
1760;DHT22;877;46.266;20.062;2023-08-31T06:38:15;18.20;91.90
1760;DHT22;877;46.266;20.062;2023-08-31T06:40:42;18.60;89.90
1760;DHT22;877;46.266;20.062;2023-08-31T06:43:16;18.70;90.50
1760;DHT22;877;46.266;20.062;2023-08-31T06:45:47;18.50;90.90
1760;DHT22;877;46.266;20.062;2023-08-31T06:48:16;18.30;93.00
1760;DHT22;877;46.266;20.062;2023-08-31T06:50:47;18.20;91.50
1760;DHT22;877;46.266;20.062;2023-08-31T06:53:14;18.50;90.00
1760;DHT22;877;46.266;20.062;2023-08-31T06:55:40;18.70;89.10
1760;DHT22;877;46.266;20.062;2023-08-31T06:58:08;19.20;87.70
1760;DHT22;877;46.266;20.062;2023-08-31T07:00:35;19.40;85.40
1760;DHT22;877;46.266;20.062;2023-08-31T07:03:02;19.50;86.30
1760;DHT22;877;46.266;20.062;2023-08-31T07:05:34;19.90;85.30
1760;DHT22;877;46.266;20.062;2023-08-31T07:08:05;19.30;85.20
1760;DHT22;877;46.266;20.062;2023-08-31T07:10:31;19.20;86.40
1760;DHT22;877;46.266;20.062;2023-08-31T07:12:58;19.00;85.00
1760;DHT22;877;46.266;20.062;2023-08-31T07:15:24;18.80;87.50
1760;DHT22;877;46.266;20.062;2023-08-31T07:17:51;18.90;88.20
1760;DHT22;877;46.266;20.062;2023-08-31T07:20:17;19.30;86.40
1760;DHT22;877;46.266;20.062;2023-08-31T07:22:43;19.50;84.60
1760;DHT22;877;46.266;20.062;2023-08-31T07:25:08;19.20;85.20
1760;DHT22;877;46.266;20.062;2023-08-31T07:27:41;19.70;85.00
1760;DHT22;877;46.266;20.062;2023-08-31T07:30:09;19.90;84.00
1760;DHT22;877;46.266;20.062;2023-08-31T07:32:36;19.80;84.50
1760;DHT22;877;46.266;20.062;2023-08-31T07:35:03;19.40;85.60
1760;DHT22;877;46.266;20.062;2023-08-31T07:37:31;19.80;83.30
1760;DHT22;877;46.266;20.062;2023-08-31T07:39:58;19.70;84.60
1760;DHT22;877;46.266;20.062;2023-08-31T07:42:23;20.00;83.80
1760;DHT22;877;46.266;20.062;2023-08-31T07:44:56;19.50;83.80
1760;DHT22;877;46.266;20.062;2023-08-31T07:47:22;19.90;81.90
1760;DHT22;877;46.266;20.062;2023-08-31T07:49:49;19.60;82.90
1760;DHT22;877;46.266;20.062;2023-08-31T07:52:14;19.60;82.90
1760;DHT22;877;46.266;20.062;2023-08-31T07:54:41;19.80;82.80
1760;DHT22;877;46.266;20.062;2023-08-31T07:57:08;20.40;80.00
1760;DHT22;877;46.266;20.062;2023-08-31T07:59:35;19.80;81.70
1760;DHT22;877;46.266;20.062;2023-08-31T08:02:05;19.90;79.70
1760;DHT22;877;46.266;20.062;2023-08-31T08:04:33;20.10;77.70
1760;DHT22;877;46.266;20.062;2023-08-31T08:07:00;20.30;77.40
1760;DHT22;877;46.266;20.062;2023-08-31T08:09:30;20.10;79.50
1760;DHT22;877;46.266;20.062;2023-08-31T08:12:08;20.50;77.10
1760;DHT22;877;46.266;20.062;2023-08-31T08:14:35;20.50;77.90
1760;DHT22;877;46.266;20.062;2023-08-31T08:17:01;20.40;77.20
1760;DHT22;877;46.266;20.062;2023-08-31T08:19:26;20.40;77.60
1760;DHT22;877;46.266;20.062;2023-08-31T08:21:52;20.40;76.80
1760;DHT22;877;46.266;20.062;2023-08-31T08:24:18;20.70;75.60
1760;DHT22;877;46.266;20.062;2023-08-31T08:26:44;20.60;72.90
1760;DHT22;877;46.266;20.062;2023-08-31T08:29:11;20.50;74.60
1760;DHT22;877;46.266;20.062;2023-08-31T08:31:39;21.20;72.90
1760;DHT22;877;46.266;20.062;2023-08-31T08:34:05;21.10;70.50
1760;DHT22;877;46.266;20.062;2023-08-31T08:36:37;20.90;74.50
1760;DHT22;877;46.266;20.062;2023-08-31T08:39:13;20.90;72.40
1760;DHT22;877;46.266;20.062;2023-08-31T08:41:43;20.60;73.70
1760;DHT22;877;46.266;20.062;2023-08-31T08:44:12;20.30;75.50
1760;DHT22;877;46.266;20.062;2023-08-31T08:46:42;21.00;73.10
1760;DHT22;877;46.266;20.062;2023-08-31T08:49:08;21.40;70.70
1760;DHT22;877;46.266;20.062;2023-08-31T08:51:37;20.90;71.30
1760;DHT22;877;46.266;20.062;2023-08-31T08:54:03;20.60;70.90
1760;DHT22;877;46.266;20.062;2023-08-31T08:56:28;20.60;70.50
1760;DHT22;877;46.266;20.062;2023-08-31T08:58:54;20.60;66.70
1760;DHT22;877;46.266;20.062;2023-08-31T09:01:22;20.80;66.30
1760;DHT22;877;46.266;20.062;2023-08-31T09:03:49;20.90;64.80
1760;DHT22;877;46.266;20.062;2023-08-31T09:06:15;20.90;64.90
1760;DHT22;877;46.266;20.062;2023-08-31T09:08:41;21.10;66.80
1760;DHT22;877;46.266;20.062;2023-08-31T09:11:07;21.30;65.70
1760;DHT22;877;46.266;20.062;2023-08-31T09:13:32;20.90;68.20
1760;DHT22;877;46.266;20.062;2023-08-31T09:15:59;21.00;68.20
1760;DHT22;877;46.266;20.062;2023-08-31T09:18:30;21.90;64.10
1760;DHT22;877;46.266;20.062;2023-08-31T09:21:00;21.80;65.60
1760;DHT22;877;46.266;20.062;2023-08-31T09:23:28;21.20;67.30
1760;DHT22;877;46.266;20.062;2023-08-31T09:25:55;21.20;68.90
1760;DHT22;877;46.266;20.062;2023-08-31T09:28:42;21.30;63.30
1760;DHT22;877;46.266;20.062;2023-08-31T09:31:09;21.20;64.80
1760;DHT22;877;46.266;20.062;2023-08-31T09:33:35;21.40;65.70
1760;DHT22;877;46.266;20.062;2023-08-31T09:36:07;21.70;64.80
1760;DHT22;877;46.266;20.062;2023-08-31T09:38:44;21.80;64.00
1760;DHT22;877;46.266;20.062;2023-08-31T09:41:10;22.30;61.10
1760;DHT22;877;46.266;20.062;2023-08-31T09:43:37;22.40;61.80
1760;DHT22;877;46.266;20.062;2023-08-31T09:46:04;22.60;59.80
1760;DHT22;877;46.266;20.062;2023-08-31T09:48:31;22.30;59.60
1760;DHT22;877;46.266;20.062;2023-08-31T09:50:57;22.50;60.10
1760;DHT22;877;46.266;20.062;2023-08-31T09:53:28;22.70;60.00
1760;DHT22;877;46.266;20.062;2023-08-31T09:55:56;23.80;57.60
1760;DHT22;877;46.266;20.062;2023-08-31T09:58:23;22.70;60.20
1760;DHT22;877;46.266;20.062;2023-08-31T10:00:51;23.10;59.30
1760;DHT22;877;46.266;20.062;2023-08-31T10:03:23;23.70;60.70
1760;DHT22;877;46.266;20.062;2023-08-31T10:05:50;23.00;59.70
1760;DHT22;877;46.266;20.062;2023-08-31T10:08:17;23.00;57.60
1760;DHT22;877;46.266;20.062;2023-08-31T10:10:45;23.10;58.00
1760;DHT22;877;46.266;20.062;2023-08-31T10:13:14;22.70;60.40
1760;DHT22;877;46.266;20.062;2023-08-31T10:15:43;22.80;60.60
1760;DHT22;877;46.266;20.062;2023-08-31T10:18:09;23.70;57.80
1760;DHT22;877;46.266;20.062;2023-08-31T10:23:51;23.10;56.30
1760;DHT22;877;46.266;20.062;2023-08-31T10:26:26;23.60;58.10
1760;DHT22;877;46.266;20.062;2023-08-31T10:28:54;24.20;53.30
1760;DHT22;877;46.266;20.062;2023-08-31T10:31:36;24.10;52.90
1760;DHT22;877;46.266;20.062;2023-08-31T10:34:06;25.10;51.90
1760;DHT22;877;46.266;20.062;2023-08-31T10:36:40;25.70;49.20
1760;DHT22;877;46.266;20.062;2023-08-31T10:39:14;24.70;51.90
1760;DHT22;877;46.266;20.062;2023-08-31T10:41:56;23.90;54.70
1760;DHT22;877;46.266;20.062;2023-08-31T10:44:32;24.70;52.50
1760;DHT22;877;46.266;20.062;2023-08-31T10:47:03;25.20;52.30
1760;DHT22;877;46.266;20.062;2023-08-31T10:49:30;26.60;49.40
1760;DHT22;877;46.266;20.062;2023-08-31T10:52:19;25.00;51.00
1760;DHT22;877;46.266;20.062;2023-08-31T10:54:47;24.00;53.40
1760;DHT22;877;46.266;20.062;2023-08-31T10:57:13;24.50;52.90
1760;DHT22;877;46.266;20.062;2023-08-31T11:03:03;24.80;51.90
1760;DHT22;877;46.266;20.062;2023-08-31T11:05:34;23.80;54.00
1760;DHT22;877;46.266;20.062;2023-08-31T11:08:13;23.90;53.70
1760;DHT22;877;46.266;20.062;2023-08-31T11:10:46;24.70;51.60
1760;DHT22;877;46.266;20.062;2023-08-31T11:13:16;24.90;50.90
1760;DHT22;877;46.266;20.062;2023-08-31T11:16:05;24.50;50.40
1760;DHT22;877;46.266;20.062;2023-08-31T11:18:32;24.70;51.10
1760;DHT22;877;46.266;20.062;2023-08-31T11:21:02;24.00;51.00
1760;DHT22;877;46.266;20.062;2023-08-31T11:23:33;25.00;48.40
1760;DHT22;877;46.266;20.062;2023-08-31T11:25:59;25.70;47.40
1760;DHT22;877;46.266;20.062;2023-08-31T11:28:24;26.30;46.90
1760;DHT22;877;46.266;20.062;2023-08-31T11:30:51;26.90;46.10
1760;DHT22;877;46.266;20.062;2023-08-31T11:33:21;26.30;45.60
1760;DHT22;877;46.266;20.062;2023-08-31T11:35:47;25.80;48.00
1760;DHT22;877;46.266;20.062;2023-08-31T11:38:28;26.30;47.10
1760;DHT22;877;46.266;20.062;2023-08-31T11:40:58;25.00;49.70
1760;DHT22;877;46.266;20.062;2023-08-31T11:43:24;24.90;48.80
1760;DHT22;877;46.266;20.062;2023-08-31T11:45:51;25.70;49.40
1760;DHT22;877;46.266;20.062;2023-08-31T11:48:31;26.80;46.00
1760;DHT22;877;46.266;20.062;2023-08-31T11:51:04;27.20;45.70
1760;DHT22;877;46.266;20.062;2023-08-31T11:53:40;26.00;47.10
1760;DHT22;877;46.266;20.062;2023-08-31T11:56:12;25.10;49.40
1760;DHT22;877;46.266;20.062;2023-08-31T11:58:44;25.70;49.80
1760;DHT22;877;46.266;20.062;2023-08-31T12:01:27;26.10;49.40
1760;DHT22;877;46.266;20.062;2023-08-31T12:03:57;25.20;49.90
1760;DHT22;877;46.266;20.062;2023-08-31T12:06:22;26.10;47.40
1760;DHT22;877;46.266;20.062;2023-08-31T12:09:01;27.20;46.00
1760;DHT22;877;46.266;20.062;2023-08-31T12:11:30;27.50;45.30
1760;DHT22;877;46.266;20.062;2023-08-31T12:14:00;28.50;45.10
1760;DHT22;877;46.266;20.062;2023-08-31T12:16:36;27.30;45.70
1760;DHT22;877;46.266;20.062;2023-08-31T12:19:03;28.30;44.40
1760;DHT22;877;46.266;20.062;2023-08-31T12:21:31;28.40;44.50
1760;DHT22;877;46.266;20.062;2023-08-31T12:23:59;27.80;43.10
1760;DHT22;877;46.266;20.062;2023-08-31T12:26:25;27.60;43.20
1760;DHT22;877;46.266;20.062;2023-08-31T12:28:53;27.80;43.40
1760;DHT22;877;46.266;20.062;2023-08-31T12:31:42;26.90;44.00
1760;DHT22;877;46.266;20.062;2023-08-31T12:34:13;26.00;45.00
1760;DHT22;877;46.266;20.062;2023-08-31T12:36:38;26.70;45.40
1760;DHT22;877;46.266;20.062;2023-08-31T12:39:08;26.60;46.10
1760;DHT22;877;46.266;20.062;2023-08-31T12:41:46;25.90;45.60
1760;DHT22;877;46.266;20.062;2023-08-31T12:44:14;25.60;45.40
1760;DHT22;877;46.266;20.062;2023-08-31T12:46:40;25.70;46.70
1760;DHT22;877;46.266;20.062;2023-08-31T12:49:06;25.90;45.70
1760;DHT22;877;46.266;20.062;2023-08-31T12:51:32;26.30;46.00
1760;DHT22;877;46.266;20.062;2023-08-31T12:54:02;26.20;44.40
1760;DHT22;877;46.266;20.062;2023-08-31T12:56:35;26.30;45.60
1760;DHT22;877;46.266;20.062;2023-08-31T12:59:09;25.30;46.80
1760;DHT22;877;46.266;20.062;2023-08-31T13:01:36;25.40;46.30
1760;DHT22;877;46.266;20.062;2023-08-31T13:04:04;25.20;46.90
1760;DHT22;877;46.266;20.062;2023-08-31T13:06:30;25.00;47.70
1760;DHT22;877;46.266;20.062;2023-08-31T13:08:56;25.80;47.00
1760;DHT22;877;46.266;20.062;2023-08-31T13:11:22;25.70;45.90
1760;DHT22;877;46.266;20.062;2023-08-31T13:13:50;25.60;48.10
1760;DHT22;877;46.266;20.062;2023-08-31T13:16:17;25.70;47.80
1760;DHT22;877;46.266;20.062;2023-08-31T13:18:43;26.00;46.90
1760;DHT22;877;46.266;20.062;2023-08-31T13:21:08;25.60;48.20
1760;DHT22;877;46.266;20.062;2023-08-31T13:23:36;25.80;47.50
1760;DHT22;877;46.266;20.062;2023-08-31T13:26:02;25.50;47.70
1760;DHT22;877;46.266;20.062;2023-08-31T13:28:36;25.80;47.90
1760;DHT22;877;46.266;20.062;2023-08-31T13:31:09;26.40;45.60
1760;DHT22;877;46.266;20.062;2023-08-31T13:33:37;25.50;46.80
1760;DHT22;877;46.266;20.062;2023-08-31T13:36:08;25.80;47.60
1760;DHT22;877;46.266;20.062;2023-08-31T13:38:35;26.00;45.90
1760;DHT22;877;46.266;20.062;2023-08-31T13:41:02;26.60;46.30
1760;DHT22;877;46.266;20.062;2023-08-31T13:43:30;26.10;46.20
1760;DHT22;877;46.266;20.062;2023-08-31T13:45:56;25.50;47.50
1760;DHT22;877;46.266;20.062;2023-08-31T13:48:21;25.60;47.20
1760;DHT22;877;46.266;20.062;2023-08-31T13:50:49;25.50;47.10
1760;DHT22;877;46.266;20.062;2023-08-31T13:53:15;25.10;47.90
1760;DHT22;877;46.266;20.062;2023-08-31T13:55:41;25.40;48.80
1760;DHT22;877;46.266;20.062;2023-08-31T13:58:07;25.40;47.90
1760;DHT22;877;46.266;20.062;2023-08-31T14:00:36;26.40;48.10
1760;DHT22;877;46.266;20.062;2023-08-31T14:03:04;26.40;46.30
1760;DHT22;877;46.266;20.062;2023-08-31T14:05:32;26.20;47.50
1760;DHT22;877;46.266;20.062;2023-08-31T14:07:58;25.40;48.50
1760;DHT22;877;46.266;20.062;2023-08-31T14:10:26;25.90;49.00
1760;DHT22;877;46.266;20.062;2023-08-31T14:13:13;25.10;49.30
1760;DHT22;877;46.266;20.062;2023-08-31T14:15:44;25.00;49.00
1760;DHT22;877;46.266;20.062;2023-08-31T14:18:13;25.10;49.20
1760;DHT22;877;46.266;20.062;2023-08-31T14:20:42;24.90;50.00
1760;DHT22;877;46.266;20.062;2023-08-31T14:23:08;25.60;48.00
1760;DHT22;877;46.266;20.062;2023-08-31T14:25:36;26.00;47.20
1760;DHT22;877;46.266;20.062;2023-08-31T14:28:04;26.10;49.20
1760;DHT22;877;46.266;20.062;2023-08-31T14:30:31;26.20;48.90
1760;DHT22;877;46.266;20.062;2023-08-31T14:32:57;25.20;50.90
1760;DHT22;877;46.266;20.062;2023-08-31T14:35:23;25.50;51.40
1760;DHT22;877;46.266;20.062;2023-08-31T14:37:48;25.50;49.90
1760;DHT22;877;46.266;20.062;2023-08-31T14:40:15;24.70;52.30
1760;DHT22;877;46.266;20.062;2023-08-31T14:42:41;24.40;52.90
1760;DHT22;877;46.266;20.062;2023-08-31T14:45:07;24.80;52.50
1760;DHT22;877;46.266;20.062;2023-08-31T14:47:33;25.10;52.80
1760;DHT22;877;46.266;20.062;2023-08-31T14:49:59;24.50;53.30
1760;DHT22;877;46.266;20.062;2023-08-31T14:52:25;24.90;52.70
1760;DHT22;877;46.266;20.062;2023-08-31T14:54:51;24.90;52.70
1760;DHT22;877;46.266;20.062;2023-08-31T14:57:17;24.70;52.50
1760;DHT22;877;46.266;20.062;2023-08-31T14:59:43;25.10;52.20
1760;DHT22;877;46.266;20.062;2023-08-31T15:02:11;24.40;53.70
1760;DHT22;877;46.266;20.062;2023-08-31T15:04:36;25.00;52.30
1760;DHT22;877;46.266;20.062;2023-08-31T15:07:02;24.90;51.50
1760;DHT22;877;46.266;20.062;2023-08-31T15:09:29;25.50;51.00
1760;DHT22;877;46.266;20.062;2023-08-31T15:11:55;25.80;48.00
1760;DHT22;877;46.266;20.062;2023-08-31T15:14:21;25.60;48.20
1760;DHT22;877;46.266;20.062;2023-08-31T15:20:17;24.90;50.00
1760;DHT22;877;46.266;20.062;2023-08-31T15:22:43;24.70;49.60
1760;DHT22;877;46.266;20.062;2023-08-31T15:25:11;24.80;49.30
1760;DHT22;877;46.266;20.062;2023-08-31T15:27:36;24.70;49.20
1760;DHT22;877;46.266;20.062;2023-08-31T15:30:05;25.00;48.80
1760;DHT22;877;46.266;20.062;2023-08-31T15:32:33;25.40;48.40
1760;DHT22;877;46.266;20.062;2023-08-31T15:35:00;24.70;49.20
1760;DHT22;877;46.266;20.062;2023-08-31T15:37:27;24.60;49.10
1760;DHT22;877;46.266;20.062;2023-08-31T15:39:53;24.20;49.80
1760;DHT22;877;46.266;20.062;2023-08-31T15:42:19;23.90;50.40
1760;DHT22;877;46.266;20.062;2023-08-31T15:44:46;24.10;49.70
1760;DHT22;877;46.266;20.062;2023-08-31T15:47:12;24.80;47.80
1760;DHT22;877;46.266;20.062;2023-08-31T15:49:38;25.00;47.90
1760;DHT22;877;46.266;20.062;2023-08-31T15:52:04;25.20;46.80
1760;DHT22;877;46.266;20.062;2023-08-31T15:54:33;24.60;46.20
1760;DHT22;877;46.266;20.062;2023-08-31T15:56:59;24.30;47.20
1760;DHT22;877;46.266;20.062;2023-08-31T15:59:25;24.10;48.00
1760;DHT22;877;46.266;20.062;2023-08-31T16:01:51;24.10;48.80
1760;DHT22;877;46.266;20.062;2023-08-31T16:04:17;24.00;49.30
1760;DHT22;877;46.266;20.062;2023-08-31T16:06:42;23.70;50.50
1760;DHT22;877;46.266;20.062;2023-08-31T16:09:08;23.60;51.20
1760;DHT22;877;46.266;20.062;2023-08-31T16:11:34;23.60;51.60
1760;DHT22;877;46.266;20.062;2023-08-31T16:14:00;23.40;52.00
1760;DHT22;877;46.266;20.062;2023-08-31T16:16:26;23.50;52.30
1760;DHT22;877;46.266;20.062;2023-08-31T16:18:52;23.70;52.30
1760;DHT22;877;46.266;20.062;2023-08-31T16:21:18;23.80;51.60
1760;DHT22;877;46.266;20.062;2023-08-31T16:23:44;23.50;52.50
1760;DHT22;877;46.266;20.062;2023-08-31T16:26:38;23.40;53.00
1760;DHT22;877;46.266;20.062;2023-08-31T16:29:06;23.40;53.30
1760;DHT22;877;46.266;20.062;2023-08-31T16:31:32;23.50;52.40
1760;DHT22;877;46.266;20.062;2023-08-31T16:34:07;23.40;52.70